sensor_id;sensor_type;location;lat;lon;timestamp;temperature;humidity
10384;DHT22;5238;43.508;4.980;2022-08-20T00:05:32;24.80;91.30
10384;DHT22;5238;43.508;4.980;2022-08-20T00:08:35;24.80;91.30
10384;DHT22;5238;43.508;4.980;2022-08-20T00:41:38;24.60;91.30
10384;DHT22;5238;43.508;4.980;2022-08-20T00:44:43;24.60;91.30
10384;DHT22;5238;43.508;4.980;2022-08-20T00:50:56;24.60;91.30
10384;DHT22;5238;43.508;4.980;2022-08-20T01:04:09;24.50;91.30
10384;DHT22;5238;43.508;4.980;2022-08-20T01:10:33;24.50;91.30
10384;DHT22;5238;43.508;4.980;2022-08-20T01:13:04;24.50;91.30
10384;DHT22;5238;43.508;4.980;2022-08-20T01:16:29;24.40;91.30
10384;DHT22;5238;43.508;4.980;2022-08-20T01:47:22;24.40;91.30
10384;DHT22;5238;43.508;4.980;2022-08-20T02:10:44;24.40;91.30
10384;DHT22;5238;43.508;4.980;2022-08-20T03:05:55;24.00;91.30
10384;DHT22;5238;43.508;4.980;2022-08-20T03:08:57;24.00;91.30
10384;DHT22;5238;43.508;4.980;2022-08-20T03:15:00;24.00;91.30
10384;DHT22;5238;43.508;4.980;2022-08-20T03:20:56;24.00;91.30
10384;DHT22;5238;43.508;4.980;2022-08-20T03:23:42;24.00;91.30
10384;DHT22;5238;43.508;4.980;2022-08-20T03:32:58;24.00;91.30
10384;DHT22;5238;43.508;4.980;2022-08-20T04:10:41;23.90;91.30
10384;DHT22;5238;43.508;4.980;2022-08-20T04:16:46;23.90;91.30
10384;DHT22;5238;43.508;4.980;2022-08-20T04:19:25;23.90;91.30
10384;DHT22;5238;43.508;4.980;2022-08-20T04:25:27;23.90;91.30
10384;DHT22;5238;43.508;4.980;2022-08-20T04:28:38;23.90;91.30
10384;DHT22;5238;43.508;4.980;2022-08-20T04:41:27;23.90;91.30
10384;DHT22;5238;43.508;4.980;2022-08-20T04:54:10;23.90;91.30
10384;DHT22;5238;43.508;4.980;2022-08-20T05:27:32;24.00;91.30
10384;DHT22;5238;43.508;4.980;2022-08-20T05:30:22;24.00;91.30
10384;DHT22;5238;43.508;4.980;2022-08-20T05:33:00;24.00;91.30
10384;DHT22;5238;43.508;4.980;2022-08-20T05:39:09;24.10;91.30
10384;DHT22;5238;43.508;4.980;2022-08-20T05:46:04;24.20;91.30
10384;DHT22;5238;43.508;4.980;2022-08-20T05:48:31;24.20;91.30
10384;DHT22;5238;43.508;4.980;2022-08-20T05:51:05;24.20;91.30
10384;DHT22;5238;43.508;4.980;2022-08-20T05:53:58;24.30;91.30
10384;DHT22;5238;43.508;4.980;2022-08-20T06:03:15;24.50;91.30
10384;DHT22;5238;43.508;4.980;2022-08-20T06:09:43;24.60;91.30
10384;DHT22;5238;43.508;4.980;2022-08-20T06:15:42;24.80;91.30
10384;DHT22;5238;43.508;4.980;2022-08-20T06:18:16;25.00;91.30
10384;DHT22;5238;43.508;4.980;2022-08-20T06:20:57;25.00;91.30
10384;DHT22;5238;43.508;4.980;2022-08-20T06:23:31;25.20;91.30
10384;DHT22;5238;43.508;4.980;2022-08-20T06:26:23;25.30;91.30
10384;DHT22;5238;43.508;4.980;2022-08-20T06:31:58;25.50;91.30
10384;DHT22;5238;43.508;4.980;2022-08-20T06:34:27;25.70;91.30
10384;DHT22;5238;43.508;4.980;2022-08-20T06:36:56;25.90;91.30
10384;DHT22;5238;43.508;4.980;2022-08-20T06:39:48;26.00;91.30
10384;DHT22;5238;43.508;4.980;2022-08-20T06:42:18;26.20;91.30
10384;DHT22;5238;43.508;4.980;2022-08-20T06:45:11;26.40;91.30
10384;DHT22;5238;43.508;4.980;2022-08-20T06:47:52;26.60;91.30
10384;DHT22;5238;43.508;4.980;2022-08-20T06:50:42;26.70;91.30
10384;DHT22;5238;43.508;4.980;2022-08-20T06:53:21;26.90;91.30
10384;DHT22;5238;43.508;4.980;2022-08-20T06:55:51;27.10;91.30
10384;DHT22;5238;43.508;4.980;2022-08-20T06:58:23;27.20;91.30
10384;DHT22;5238;43.508;4.980;2022-08-20T07:00:51;27.30;91.30
10384;DHT22;5238;43.508;4.980;2022-08-20T07:03:25;27.50;91.30
10384;DHT22;5238;43.508;4.980;2022-08-20T07:06:11;27.60;91.30
10384;DHT22;5238;43.508;4.980;2022-08-20T07:08:47;27.90;91.30
10384;DHT22;5238;43.508;4.980;2022-08-20T07:11:15;28.00;91.30
10384;DHT22;5238;43.508;4.980;2022-08-20T07:13:58;28.20;91.30
10384;DHT22;5238;43.508;4.980;2022-08-20T07:16:40;28.30;91.30
10384;DHT22;5238;43.508;4.980;2022-08-20T07:19:14;28.50;91.30
10384;DHT22;5238;43.508;4.980;2022-08-20T07:21:44;28.70;91.30
10384;DHT22;5238;43.508;4.980;2022-08-20T07:24:12;28.80;91.30
10384;DHT22;5238;43.508;4.980;2022-08-20T07:26:39;28.90;91.30
10384;DHT22;5238;43.508;4.980;2022-08-20T07:29:06;29.10;91.30
10384;DHT22;5238;43.508;4.980;2022-08-20T07:31:57;29.40;91.30
10384;DHT22;5238;43.508;4.980;2022-08-20T07:34:42;29.40;91.30
10384;DHT22;5238;43.508;4.980;2022-08-20T07:37:13;29.70;91.30
10384;DHT22;5238;43.508;4.980;2022-08-20T07:39:47;29.90;91.30
10384;DHT22;5238;43.508;4.980;2022-08-20T07:42:15;30.00;91.30
10384;DHT22;5238;43.508;4.980;2022-08-20T07:44:51;30.10;91.30
10384;DHT22;5238;43.508;4.980;2022-08-20T07:47:26;30.20;91.30
10384;DHT22;5238;43.508;4.980;2022-08-20T07:50:15;30.40;91.30
10384;DHT22;5238;43.508;4.980;2022-08-20T07:52:51;30.60;91.30
10384;DHT22;5238;43.508;4.980;2022-08-20T07:55:43;30.70;91.30
10384;DHT22;5238;43.508;4.980;2022-08-20T07:58:14;30.80;91.30
10384;DHT22;5238;43.508;4.980;2022-08-20T08:00:43;31.00;91.30
10384;DHT22;5238;43.508;4.980;2022-08-20T08:03:12;31.10;91.30
10384;DHT22;5238;43.508;4.980;2022-08-20T08:05:44;31.40;91.30
10384;DHT22;5238;43.508;4.980;2022-08-20T08:08:18;31.40;91.30
10384;DHT22;5238;43.508;4.980;2022-08-20T08:11:10;31.70;91.30
10384;DHT22;5238;43.508;4.980;2022-08-20T08:13:41;31.90;91.30
10384;DHT22;5238;43.508;4.980;2022-08-20T08:16:09;32.10;91.30
10384;DHT22;5238;43.508;4.980;2022-08-20T08:18:40;32.20;91.30
10384;DHT22;5238;43.508;4.980;2022-08-20T08:21:11;32.40;91.30
10384;DHT22;5238;43.508;4.980;2022-08-20T08:23:40;32.60;91.30
10384;DHT22;5238;43.508;4.980;2022-08-20T08:26:10;32.90;91.30
10384;DHT22;5238;43.508;4.980;2022-08-20T08:28:38;32.90;91.30
10384;DHT22;5238;43.508;4.980;2022-08-20T08:31:06;33.00;91.30
10384;DHT22;5238;43.508;4.980;2022-08-20T08:33:44;33.10;91.30
10384;DHT22;5238;43.508;4.980;2022-08-20T08:36:15;33.20;91.30
10384;DHT22;5238;43.508;4.980;2022-08-20T08:38:46;33.30;91.30
10384;DHT22;5238;43.508;4.980;2022-08-20T08:41:19;33.40;91.30
10384;DHT22;5238;43.508;4.980;2022-08-20T08:43:51;33.60;91.30
10384;DHT22;5238;43.508;4.980;2022-08-20T08:46:38;33.70;91.30
10384;DHT22;5238;43.508;4.980;2022-08-20T08:49:10;33.70;91.30
10384;DHT22;5238;43.508;4.980;2022-08-20T08:51:51;33.80;91.30
10384;DHT22;5238;43.508;4.980;2022-08-20T08:54:28;33.90;91.30
10384;DHT22;5238;43.508;4.980;2022-08-20T08:56:57;33.90;91.30
10384;DHT22;5238;43.508;4.980;2022-08-20T08:59:29;33.90;91.30
10384;DHT22;5238;43.508;4.980;2022-08-20T09:02:01;34.00;91.30
10384;DHT22;5238;43.508;4.980;2022-08-20T09:04:31;34.00;91.30
10384;DHT22;5238;43.508;4.980;2022-08-20T09:07:02;34.10;91.30
10384;DHT22;5238;43.508;4.980;2022-08-20T09:09:34;34.30;91.30
10384;DHT22;5238;43.508;4.980;2022-08-20T09:12:08;34.40;91.30
10384;DHT22;5238;43.508;4.980;2022-08-20T09:14:37;34.60;91.30
10384;DHT22;5238;43.508;4.980;2022-08-20T09:17:06;34.60;91.30
10384;DHT22;5238;43.508;4.980;2022-08-20T09:19:34;34.80;91.30
10384;DHT22;5238;43.508;4.980;2022-08-20T09:22:07;34.90;91.30
10384;DHT22;5238;43.508;4.980;2022-08-20T09:24:37;35.10;91.30
10384;DHT22;5238;43.508;4.980;2022-08-20T09:27:05;35.20;91.30
10384;DHT22;5238;43.508;4.980;2022-08-20T09:29:32;35.30;91.30
10384;DHT22;5238;43.508;4.980;2022-08-20T09:32:05;35.30;91.30
10384;DHT22;5238;43.508;4.980;2022-08-20T09:34:36;35.40;91.30
10384;DHT22;5238;43.508;4.980;2022-08-20T09:37:03;35.40;91.30
10384;DHT22;5238;43.508;4.980;2022-08-20T09:39:31;35.50;91.30
10384;DHT22;5238;43.508;4.980;2022-08-20T09:42:27;35.60;91.30
10384;DHT22;5238;43.508;4.980;2022-08-20T09:45:16;35.60;91.30
10384;DHT22;5238;43.508;4.980;2022-08-20T09:47:46;35.60;91.30
10384;DHT22;5238;43.508;4.980;2022-08-20T09:50:13;35.60;91.30
10384;DHT22;5238;43.508;4.980;2022-08-20T09:53:03;35.60;91.20
10384;DHT22;5238;43.508;4.980;2022-08-20T09:55:51;35.70;91.30
10384;DHT22;5238;43.508;4.980;2022-08-20T10:01:57;35.90;91.00
10384;DHT22;5238;43.508;4.980;2022-08-20T10:04:50;35.80;90.60
10384;DHT22;5238;43.508;4.980;2022-08-20T10:10:20;35.70;90.40
10384;DHT22;5238;43.508;4.980;2022-08-20T10:13:08;35.70;90.50
10384;DHT22;5238;43.508;4.980;2022-08-20T10:15:44;35.90;91.10
10384;DHT22;5238;43.508;4.980;2022-08-20T10:18:19;36.00;91.20
10384;DHT22;5238;43.508;4.980;2022-08-20T10:27:29;36.30;91.00
10384;DHT22;5238;43.508;4.980;2022-08-20T10:30:00;36.30;90.10
10384;DHT22;5238;43.508;4.980;2022-08-20T10:33:26;36.30;90.40
10384;DHT22;5238;43.508;4.980;2022-08-20T10:36:26;36.40;90.50
10384;DHT22;5238;43.508;4.980;2022-08-20T10:38:55;36.40;89.60
10384;DHT22;5238;43.508;4.980;2022-08-20T10:44:51;36.30;89.90
10384;DHT22;5238;43.508;4.980;2022-08-20T10:47:30;36.40;89.10
10384;DHT22;5238;43.508;4.980;2022-08-20T10:50:01;36.40;88.00
10384;DHT22;5238;43.508;4.980;2022-08-20T10:52:57;36.30;87.80
10384;DHT22;5238;43.508;4.980;2022-08-20T10:55:24;36.30;88.90
10384;DHT22;5238;43.508;4.980;2022-08-20T10:58:06;36.20;88.90
10384;DHT22;5238;43.508;4.980;2022-08-20T11:00:47;36.20;88.50
10384;DHT22;5238;43.508;4.980;2022-08-20T11:03:17;36.20;88.90
10384;DHT22;5238;43.508;4.980;2022-08-20T11:06:06;36.20;89.10
10384;DHT22;5238;43.508;4.980;2022-08-20T11:08:51;36.30;89.40
10384;DHT22;5238;43.508;4.980;2022-08-20T11:15:27;36.30;88.90
10384;DHT22;5238;43.508;4.980;2022-08-20T11:28:40;35.90;87.60
10384;DHT22;5238;43.508;4.980;2022-08-20T11:35:30;35.60;89.40
10384;DHT22;5238;43.508;4.980;2022-08-20T11:42:03;35.20;89.30
10384;DHT22;5238;43.508;4.980;2022-08-20T11:44:32;34.90;89.90
10384;DHT22;5238;43.508;4.980;2022-08-20T11:46:59;34.80;90.70
10384;DHT22;5238;43.508;4.980;2022-08-20T11:53:02;34.50;90.80
10384;DHT22;5238;43.508;4.980;2022-08-20T11:55:35;34.30;90.90
10384;DHT22;5238;43.508;4.980;2022-08-20T11:58:49;34.20;91.30
10384;DHT22;5238;43.508;4.980;2022-08-20T12:08:20;33.80;91.30
10384;DHT22;5238;43.508;4.980;2022-08-20T12:10:47;33.70;91.30
10384;DHT22;5238;43.508;4.980;2022-08-20T12:13:44;33.50;91.30
10384;DHT22;5238;43.508;4.980;2022-08-20T12:16:23;33.40;91.30
10384;DHT22;5238;43.508;4.980;2022-08-20T12:19:31;33.40;91.30
10384;DHT22;5238;43.508;4.980;2022-08-20T12:22:42;33.30;91.30
10384;DHT22;5238;43.508;4.980;2022-08-20T12:25:23;33.30;91.30
10384;DHT22;5238;43.508;4.980;2022-08-20T12:27:51;33.20;91.30
10384;DHT22;5238;43.508;4.980;2022-08-20T12:30:34;33.10;91.30
10384;DHT22;5238;43.508;4.980;2022-08-20T12:33:11;33.00;91.30
10384;DHT22;5238;43.508;4.980;2022-08-20T12:39:10;32.90;91.30
10384;DHT22;5238;43.508;4.980;2022-08-20T12:41:38;32.80;91.30
10384;DHT22;5238;43.508;4.980;2022-08-20T12:44:06;32.80;91.30
10384;DHT22;5238;43.508;4.980;2022-08-20T12:47:04;32.70;91.30
10384;DHT22;5238;43.508;4.980;2022-08-20T12:50:07;32.70;91.30
10384;DHT22;5238;43.508;4.980;2022-08-20T12:52:35;32.60;91.30
10384;DHT22;5238;43.508;4.980;2022-08-20T12:55:08;32.60;91.30
10384;DHT22;5238;43.508;4.980;2022-08-20T13:04:25;32.50;91.30
10384;DHT22;5238;43.508;4.980;2022-08-20T13:07:29;32.40;91.30
10384;DHT22;5238;43.508;4.980;2022-08-20T13:13:15;32.40;91.30
10384;DHT22;5238;43.508;4.980;2022-08-20T13:16:25;32.30;91.30
10384;DHT22;5238;43.508;4.980;2022-08-20T13:25:59;32.10;91.30
10384;DHT22;5238;43.508;4.980;2022-08-20T13:38:33;32.00;91.30
10384;DHT22;5238;43.508;4.980;2022-08-20T13:44:46;31.90;91.30
10384;DHT22;5238;43.508;4.980;2022-08-20T13:47:39;31.90;91.30
10384;DHT22;5238;43.508;4.980;2022-08-20T13:50:24;31.80;91.30
10384;DHT22;5238;43.508;4.980;2022-08-20T13:53:17;31.80;91.30
10384;DHT22;5238;43.508;4.980;2022-08-20T14:06:15;31.80;91.30
10384;DHT22;5238;43.508;4.980;2022-08-20T14:22:23;31.80;91.30
10384;DHT22;5238;43.508;4.980;2022-08-20T14:24:56;31.90;91.30
10384;DHT22;5238;43.508;4.980;2022-08-20T14:31:36;31.80;91.30
10384;DHT22;5238;43.508;4.980;2022-08-20T14:34:04;31.80;91.30
10384;DHT22;5238;43.508;4.980;2022-08-20T14:43:23;31.70;91.30
10384;DHT22;5238;43.508;4.980;2022-08-20T14:46:02;31.70;91.30
10384;DHT22;5238;43.508;4.980;2022-08-20T14:48:47;31.70;91.30
10384;DHT22;5238;43.508;4.980;2022-08-20T14:51:15;31.70;91.30
10384;DHT22;5238;43.508;4.980;2022-08-20T14:53:43;31.60;91.30
10384;DHT22;5238;43.508;4.980;2022-08-20T14:56:10;31.60;91.30
10384;DHT22;5238;43.508;4.980;2022-08-20T14:58:55;31.60;91.30
10384;DHT22;5238;43.508;4.980;2022-08-20T15:01:53;31.60;91.30
10384;DHT22;5238;43.508;4.980;2022-08-20T15:04:34;31.60;91.30
10384;DHT22;5238;43.508;4.980;2022-08-20T15:17:19;31.70;91.30
10384;DHT22;5238;43.508;4.980;2022-08-20T15:31:00;31.90;91.30
10384;DHT22;5238;43.508;4.980;2022-08-20T15:36:57;31.90;91.30
10384;DHT22;5238;43.508;4.980;2022-08-20T15:39:24;32.00;91.30
10384;DHT22;5238;43.508;4.980;2022-08-20T15:42:22;32.00;91.30
10384;DHT22;5238;43.508;4.980;2022-08-20T15:44:50;32.00;91.30
10384;DHT22;5238;43.508;4.980;2022-08-20T15:54:22;31.90;91.30
10384;DHT22;5238;43.508;4.980;2022-08-20T15:56:57;32.00;91.30
10384;DHT22;5238;43.508;4.980;2022-08-20T16:06:34;32.00;91.30
10384;DHT22;5238;43.508;4.980;2022-08-20T16:09:32;32.00;91.30
10384;DHT22;5238;43.508;4.980;2022-08-20T16:12:47;32.00;91.30
10384;DHT22;5238;43.508;4.980;2022-08-20T16:15:23;31.90;91.30
10384;DHT22;5238;43.508;4.980;2022-08-20T16:18:04;31.90;91.30
10384;DHT22;5238;43.508;4.980;2022-08-20T16:21:28;31.90;91.30
10384;DHT22;5238;43.508;4.980;2022-08-20T16:24:03;31.80;91.20
10384;DHT22;5238;43.508;4.980;2022-08-20T16:27:24;31.80;91.00
10384;DHT22;5238;43.508;4.980;2022-08-20T16:29:56;31.80;91.10
10384;DHT22;5238;43.508;4.980;2022-08-20T16:32:33;31.70;90.80
10384;DHT22;5238;43.508;4.980;2022-08-20T16:35:30;31.70;90.60
10384;DHT22;5238;43.508;4.980;2022-08-20T16:41:43;31.60;90.60
10384;DHT22;5238;43.508;4.980;2022-08-20T16:47:28;31.60;90.90
10384;DHT22;5238;43.508;4.980;2022-08-20T16:50:13;31.50;91.20
10384;DHT22;5238;43.508;4.980;2022-08-20T16:56:08;31.50;91.30
10384;DHT22;5238;43.508;4.980;2022-08-20T16:58:36;31.40;90.80
10384;DHT22;5238;43.508;4.980;2022-08-20T17:01:24;31.40;91.10
10384;DHT22;5238;43.508;4.980;2022-08-20T17:24:41;31.10;91.30
10384;DHT22;5238;43.508;4.980;2022-08-20T17:30:51;30.90;91.30
10384;DHT22;5238;43.508;4.980;2022-08-20T17:33:27;30.80;91.30
10384;DHT22;5238;43.508;4.980;2022-08-20T17:36:17;30.80;91.30
10384;DHT22;5238;43.508;4.980;2022-08-20T17:38:51;30.70;91.30
10384;DHT22;5238;43.508;4.980;2022-08-20T17:41:36;30.70;91.30
10384;DHT22;5238;43.508;4.980;2022-08-20T17:44:17;30.60;91.30
10384;DHT22;5238;43.508;4.980;2022-08-20T17:46:48;30.50;91.30
10384;DHT22;5238;43.508;4.980;2022-08-20T17:49:29;30.50;91.30
10384;DHT22;5238;43.508;4.980;2022-08-20T17:51:59;30.50;91.30
10384;DHT22;5238;43.508;4.980;2022-08-20T17:54:30;30.40;91.30
10384;DHT22;5238;43.508;4.980;2022-08-20T17:57:11;30.30;91.30
10384;DHT22;5238;43.508;4.980;2022-08-20T17:59:47;30.30;91.30
10384;DHT22;5238;43.508;4.980;2022-08-20T18:02:18;30.20;91.30
10384;DHT22;5238;43.508;4.980;2022-08-20T18:04:50;30.20;91.30
10384;DHT22;5238;43.508;4.980;2022-08-20T18:07:32;30.10;91.30
10384;DHT22;5238;43.508;4.980;2022-08-20T18:10:11;30.10;91.30
10384;DHT22;5238;43.508;4.980;2022-08-20T18:12:53;30.00;91.30
10384;DHT22;5238;43.508;4.980;2022-08-20T18:15:30;29.90;91.30
10384;DHT22;5238;43.508;4.980;2022-08-20T18:18:20;29.80;91.30
10384;DHT22;5238;43.508;4.980;2022-08-20T18:21:49;29.80;91.30
10384;DHT22;5238;43.508;4.980;2022-08-20T18:27:09;29.60;91.30
10384;DHT22;5238;43.508;4.980;2022-08-20T18:29:45;29.60;91.30
10384;DHT22;5238;43.508;4.980;2022-08-20T18:35:18;29.40;91.30
10384;DHT22;5238;43.508;4.980;2022-08-20T18:38:01;29.40;91.30
10384;DHT22;5238;43.508;4.980;2022-08-20T18:40:38;29.30;91.30
10384;DHT22;5238;43.508;4.980;2022-08-20T18:43:27;29.30;91.30
10384;DHT22;5238;43.508;4.980;2022-08-20T18:46:11;29.20;91.30
10384;DHT22;5238;43.508;4.980;2022-08-20T18:48:57;29.10;91.30
10384;DHT22;5238;43.508;4.980;2022-08-20T18:51:35;29.10;91.30
10384;DHT22;5238;43.508;4.980;2022-08-20T18:54:05;29.10;91.30
10384;DHT22;5238;43.508;4.980;2022-08-20T18:56:40;29.00;91.30
10384;DHT22;5238;43.508;4.980;2022-08-20T18:59:17;29.00;91.30
10384;DHT22;5238;43.508;4.980;2022-08-20T19:01:57;28.90;91.30
10384;DHT22;5238;43.508;4.980;2022-08-20T19:04:36;28.90;91.30
10384;DHT22;5238;43.508;4.980;2022-08-20T19:07:19;28.80;91.30
10384;DHT22;5238;43.508;4.980;2022-08-20T19:10:03;28.80;91.30
10384;DHT22;5238;43.508;4.980;2022-08-20T19:13:04;28.80;91.30
10384;DHT22;5238;43.508;4.980;2022-08-20T19:15:43;28.70;91.30
10384;DHT22;5238;43.508;4.980;2022-08-20T19:18:15;28.70;91.30
10384;DHT22;5238;43.508;4.980;2022-08-20T19:20:53;28.70;91.30
10384;DHT22;5238;43.508;4.980;2022-08-20T19:23:26;28.60;91.30
10384;DHT22;5238;43.508;4.980;2022-08-20T19:25:57;28.60;91.30
10384;DHT22;5238;43.508;4.980;2022-08-20T19:28:29;28.60;91.30
10384;DHT22;5238;43.508;4.980;2022-08-20T19:31:09;28.60;91.30
10384;DHT22;5238;43.508;4.980;2022-08-20T19:33:44;28.50;91.30
10384;DHT22;5238;43.508;4.980;2022-08-20T19:39:20;28.50;91.30
10384;DHT22;5238;43.508;4.980;2022-08-20T19:41:50;28.50;91.30
10384;DHT22;5238;43.508;4.980;2022-08-20T19:44:27;28.40;91.30
10384;DHT22;5238;43.508;4.980;2022-08-20T19:46:56;28.40;91.30
10384;DHT22;5238;43.508;4.980;2022-08-20T19:49:51;28.30;91.30
10384;DHT22;5238;43.508;4.980;2022-08-20T19:52:33;28.30;91.30
10384;DHT22;5238;43.508;4.980;2022-08-20T19:55:21;28.30;91.30
10384;DHT22;5238;43.508;4.980;2022-08-20T19:57:55;28.30;91.30
10384;DHT22;5238;43.508;4.980;2022-08-20T20:00:38;28.20;91.30
10384;DHT22;5238;43.508;4.980;2022-08-20T20:03:10;28.20;91.30
10384;DHT22;5238;43.508;4.980;2022-08-20T20:05:45;28.20;91.30
10384;DHT22;5238;43.508;4.980;2022-08-20T20:08:15;28.10;91.30
10384;DHT22;5238;43.508;4.980;2022-08-20T20:10:49;28.10;91.30
10384;DHT22;5238;43.508;4.980;2022-08-20T20:13:17;28.10;91.30
10384;DHT22;5238;43.508;4.980;2022-08-20T20:15:48;28.00;91.30
10384;DHT22;5238;43.508;4.980;2022-08-20T20:18:16;28.00;91.30
10384;DHT22;5238;43.508;4.980;2022-08-20T20:20:45;28.00;91.30
10384;DHT22;5238;43.508;4.980;2022-08-20T20:23:27;27.90;91.30
10384;DHT22;5238;43.508;4.980;2022-08-20T20:26:02;27.90;91.30
10384;DHT22;5238;43.508;4.980;2022-08-20T20:28:42;27.90;91.30
10384;DHT22;5238;43.508;4.980;2022-08-20T20:31:13;27.80;91.30
10384;DHT22;5238;43.508;4.980;2022-08-20T20:33:50;27.80;91.30
10384;DHT22;5238;43.508;4.980;2022-08-20T20:36:33;27.80;91.30
10384;DHT22;5238;43.508;4.980;2022-08-20T20:39:35;27.80;91.30
10384;DHT22;5238;43.508;4.980;2022-08-20T20:42:12;27.70;91.30
10384;DHT22;5238;43.508;4.980;2022-08-20T20:44:50;27.70;91.30
10384;DHT22;5238;43.508;4.980;2022-08-20T20:47:20;27.70;91.30
10384;DHT22;5238;43.508;4.980;2022-08-20T20:49:53;27.70;91.30
10384;DHT22;5238;43.508;4.980;2022-08-20T20:52:24;27.70;91.30
10384;DHT22;5238;43.508;4.980;2022-08-20T20:55:07;27.70;91.30
10384;DHT22;5238;43.508;4.980;2022-08-20T20:57:39;27.70;91.30
10384;DHT22;5238;43.508;4.980;2022-08-20T21:00:09;27.70;91.30
10384;DHT22;5238;43.508;4.980;2022-08-20T21:02:41;27.60;91.30
10384;DHT22;5238;43.508;4.980;2022-08-20T21:05:10;27.60;91.30
10384;DHT22;5238;43.508;4.980;2022-08-20T21:07:44;27.60;91.30
10384;DHT22;5238;43.508;4.980;2022-08-20T21:10:11;27.60;91.30
10384;DHT22;5238;43.508;4.980;2022-08-20T21:12:44;27.60;91.30
10384;DHT22;5238;43.508;4.980;2022-08-20T21:15:13;27.60;91.30
10384;DHT22;5238;43.508;4.980;2022-08-20T21:17:41;27.60;91.30
10384;DHT22;5238;43.508;4.980;2022-08-20T21:20:10;27.60;91.30
10384;DHT22;5238;43.508;4.980;2022-08-20T21:22:38;27.60;91.30
10384;DHT22;5238;43.508;4.980;2022-08-20T21:25:06;27.60;91.30
10384;DHT22;5238;43.508;4.980;2022-08-20T21:27:33;27.60;91.30
10384;DHT22;5238;43.508;4.980;2022-08-20T21:30:18;27.60;91.30
10384;DHT22;5238;43.508;4.980;2022-08-20T21:32:45;27.50;91.30
10384;DHT22;5238;43.508;4.980;2022-08-20T21:35:17;27.50;91.30
10384;DHT22;5238;43.508;4.980;2022-08-20T21:37:45;27.50;91.30
10384;DHT22;5238;43.508;4.980;2022-08-20T21:40:13;27.50;91.30
10384;DHT22;5238;43.508;4.980;2022-08-20T21:42:40;27.50;91.30
10384;DHT22;5238;43.508;4.980;2022-08-20T21:45:11;27.40;91.30
10384;DHT22;5238;43.508;4.980;2022-08-20T21:47:40;27.40;91.30
10384;DHT22;5238;43.508;4.980;2022-08-20T21:50:09;27.40;91.30
10384;DHT22;5238;43.508;4.980;2022-08-20T21:52:45;27.40;91.30
10384;DHT22;5238;43.508;4.980;2022-08-20T21:55:19;27.30;91.30
10384;DHT22;5238;43.508;4.980;2022-08-20T21:57:46;27.30;91.30
10384;DHT22;5238;43.508;4.980;2022-08-20T22:00:42;27.30;91.30
10384;DHT22;5238;43.508;4.980;2022-08-20T22:03:16;27.30;91.30
10384;DHT22;5238;43.508;4.980;2022-08-20T22:05:53;27.30;91.30
10384;DHT22;5238;43.508;4.980;2022-08-20T22:08:21;27.20;91.30
10384;DHT22;5238;43.508;4.980;2022-08-20T22:10:49;27.20;91.30
10384;DHT22;5238;43.508;4.980;2022-08-20T22:13:18;27.20;91.30
10384;DHT22;5238;43.508;4.980;2022-08-20T22:15:45;27.20;91.30
10384;DHT22;5238;43.508;4.980;2022-08-20T22:18:16;27.10;91.30
10384;DHT22;5238;43.508;4.980;2022-08-20T22:20:43;27.10;91.30
10384;DHT22;5238;43.508;4.980;2022-08-20T22:23:11;27.10;91.30
10384;DHT22;5238;43.508;4.980;2022-08-20T22:25:39;27.10;91.30
10384;DHT22;5238;43.508;4.980;2022-08-20T22:28:06;27.10;91.30
10384;DHT22;5238;43.508;4.980;2022-08-20T22:30:36;27.10;91.30
10384;DHT22;5238;43.508;4.980;2022-08-20T22:33:11;27.10;91.30
10384;DHT22;5238;43.508;4.980;2022-08-20T22:35:52;27.10;91.30
10384;DHT22;5238;43.508;4.980;2022-08-20T22:38:28;27.10;91.30
10384;DHT22;5238;43.508;4.980;2022-08-20T22:40:57;27.10;91.30
10384;DHT22;5238;43.508;4.980;2022-08-20T22:43:28;27.10;91.30
10384;DHT22;5238;43.508;4.980;2022-08-20T22:46:10;27.10;91.30
10384;DHT22;5238;43.508;4.980;2022-08-20T22:48:39;27.10;91.30
10384;DHT22;5238;43.508;4.980;2022-08-20T22:51:09;27.10;91.30
10384;DHT22;5238;43.508;4.980;2022-08-20T22:53:41;27.10;91.30
10384;DHT22;5238;43.508;4.980;2022-08-20T22:56:10;27.00;91.30
10384;DHT22;5238;43.508;4.980;2022-08-20T23:04:12;27.00;91.30
10384;DHT22;5238;43.508;4.980;2022-08-20T23:06:48;27.00;91.30
10384;DHT22;5238;43.508;4.980;2022-08-20T23:09:27;26.90;91.30
10384;DHT22;5238;43.508;4.980;2022-08-20T23:12:16;26.90;91.30
10384;DHT22;5238;43.508;4.980;2022-08-20T23:14:47;26.90;91.30
10384;DHT22;5238;43.508;4.980;2022-08-20T23:17:28;26.80;91.30
10384;DHT22;5238;43.508;4.980;2022-08-20T23:19:57;26.80;91.30
10384;DHT22;5238;43.508;4.980;2022-08-20T23:22:36;26.80;91.30
10384;DHT22;5238;43.508;4.980;2022-08-20T23:25:04;26.80;91.30
10384;DHT22;5238;43.508;4.980;2022-08-20T23:27:34;26.80;91.30
10384;DHT22;5238;43.508;4.980;2022-08-20T23:30:06;26.70;91.30
10384;DHT22;5238;43.508;4.980;2022-08-20T23:32:39;26.70;91.30
10384;DHT22;5238;43.508;4.980;2022-08-20T23:35:08;26.70;91.30
10384;DHT22;5238;43.508;4.980;2022-08-20T23:37:42;26.60;91.30
10384;DHT22;5238;43.508;4.980;2022-08-20T23:40:10;26.60;91.30
10384;DHT22;5238;43.508;4.980;2022-08-20T23:42:38;26.60;91.30
10384;DHT22;5238;43.508;4.980;2022-08-20T23:45:06;26.60;91.30
10384;DHT22;5238;43.508;4.980;2022-08-20T23:47:34;26.60;91.30
10384;DHT22;5238;43.508;4.980;2022-08-20T23:50:06;26.60;91.30
10384;DHT22;5238;43.508;4.980;2022-08-20T23:52:37;26.60;91.30
10384;DHT22;5238;43.508;4.980;2022-08-20T23:55:05;26.60;91.30
10384;DHT22;5238;43.508;4.980;2022-08-20T23:57:36;26.50;91.30
